createdAt,value
2019-03-23T00:02:26.377Z,71.83
2019-03-23T00:04:57.234Z,72.26
2019-03-23T00:07:27.994Z,72.29
2019-03-23T00:09:58.841Z,72.10
2019-03-23T00:12:29.858Z,71.85
2019-03-23T00:15:00.520Z,72.15
2019-03-23T00:17:31.645Z,72.08
2019-03-23T00:20:02.650Z,72.02
2019-03-23T00:22:33.437Z,71.97
2019-03-23T00:25:04.542Z,72.37
2019-03-23T00:27:35.496Z,71.83
2019-03-23T00:30:08.951Z,71.92
2019-03-23T00:32:39.814Z,72.16
2019-03-23T00:35:11.090Z,71.60
2019-03-23T00:37:41.787Z,72.04
2019-03-23T00:40:13.021Z,72.03
2019-03-23T00:42:43.832Z,72.04
2019-03-23T00:45:14.804Z,72.26
2019-03-23T00:47:45.539Z,71.96
2019-03-23T00:50:16.453Z,72.07
2019-03-23T00:52:47.258Z,72.41
2019-03-23T00:55:18.016Z,72.34
2019-03-23T00:57:49.251Z,71.67
2019-03-23T01:00:20.108Z,72.32
2019-03-23T01:02:50.823Z,72.28
2019-03-23T01:05:21.650Z,72.54
2019-03-23T01:07:52.488Z,72.36
2019-03-23T01:10:23.155Z,72.47
2019-03-23T01:12:53.904Z,72.12
2019-03-23T01:15:24.609Z,71.88
2019-03-23T01:17:55.424Z,71.16
2019-03-23T01:20:26.638Z,72.32
2019-03-23T01:22:57.437Z,72.05
2019-03-23T01:25:28.312Z,72.35
2019-03-23T01:27:59.528Z,72.75
2019-03-23T01:30:30.237Z,72.12
2019-03-23T01:33:00.935Z,72.00
2019-03-23T01:35:31.675Z,72.26
2019-03-23T01:38:02.797Z,72.70
2019-03-23T01:40:33.505Z,71.70
2019-03-23T01:43:04.612Z,72.26
2019-03-23T01:45:35.420Z,71.85
2019-03-23T01:48:06.860Z,71.85
2019-03-23T01:50:38.082Z,71.43
2019-03-23T01:53:09.638Z,72.26
2019-03-23T01:55:40.552Z,72.33
2019-03-23T01:58:11.869Z,72.20
2019-03-23T02:00:42.529Z,72.43
2019-03-23T02:03:13.227Z,72.06
2019-03-23T02:05:44.383Z,71.98
2019-03-23T02:08:15.119Z,71.97
2019-03-23T02:10:46.074Z,72.47
2019-03-23T02:13:16.744Z,72.17
2019-03-23T02:15:47.672Z,72.63
2019-03-23T02:18:18.382Z,72.21
2019-03-23T02:20:49.327Z,71.84
2019-03-23T02:23:20.016Z,72.19
2019-03-23T02:25:50.683Z,71.99
2019-03-23T02:28:21.431Z,72.46
2019-03-23T02:30:52.535Z,72.36
2019-03-23T02:33:23.233Z,72.37
2019-03-23T02:35:53.915Z,71.70
2019-03-23T02:38:24.677Z,72.01
2019-03-23T02:40:55.376Z,72.20
2019-03-23T02:43:26.091Z,71.87
2019-03-23T02:45:57.628Z,72.35
2019-03-23T02:48:28.383Z,72.33
2019-03-23T02:50:59.074Z,72.27
2019-03-23T02:53:29.771Z,71.98
2019-03-23T02:56:00.505Z,72.25
2019-03-23T02:58:31.313Z,72.22
2019-03-23T03:01:02.295Z,72.47
2019-03-23T03:03:33.394Z,72.48
2019-03-23T03:06:04.387Z,72.52
2019-03-23T03:08:35.176Z,71.96
2019-03-23T03:11:06.125Z,72.31
2019-03-23T03:13:36.923Z,72.73
2019-03-23T03:16:07.697Z,72.44
2019-03-23T03:18:38.458Z,72.25
2019-03-23T03:21:09.287Z,72.90
2019-03-23T03:23:40.016Z,72.77
2019-03-23T03:26:10.914Z,71.85
2019-03-23T03:28:42.046Z,71.81
2019-03-23T03:31:12.731Z,72.25
2019-03-23T03:33:43.443Z,72.18
2019-03-23T03:36:14.200Z,71.98
2019-03-23T03:38:45.346Z,72.28
2019-03-23T03:41:16.116Z,72.10
2019-03-23T03:43:47.098Z,72.35
2019-03-23T03:46:17.802Z,72.53
2019-03-23T03:48:48.471Z,72.71
2019-03-23T03:51:19.235Z,72.51
2019-03-23T03:53:50.054Z,72.77
2019-03-23T03:56:20.741Z,74.93
2019-03-23T03:58:51.518Z,73.41
2019-03-23T04:01:22.190Z,72.71
2019-03-23T04:03:53.380Z,73.46
2019-03-23T04:06:24.101Z,72.64
2019-03-23T04:08:55.274Z,72.83
2019-03-23T04:11:26.023Z,72.24
2019-03-23T04:13:57.828Z,72.62
2019-03-23T04:16:29.341Z,72.17
2019-03-23T04:19:00.028Z,72.53
2019-03-23T04:21:30.826Z,72.17
2019-03-23T04:24:01.494Z,72.39
2019-03-23T04:26:32.447Z,72.09
2019-03-23T04:29:03.224Z,71.66
2019-03-23T04:31:34.199Z,75.89
2019-03-23T04:34:04.953Z,76.45
2019-03-23T04:36:35.640Z,73.85
2019-03-23T04:39:07.657Z,74.51
2019-03-23T04:41:38.371Z,76.57
2019-03-23T04:44:09.292Z,79.27
2019-03-23T04:46:39.952Z,74.66
2019-03-23T04:49:10.701Z,73.58
2019-03-23T04:51:41.599Z,73.01
2019-03-23T04:54:12.302Z,73.87
2019-03-23T04:56:43.415Z,75.15
2019-03-23T04:59:14.099Z,77.01
2019-03-23T05:01:44.973Z,77.80
2019-03-23T05:04:15.639Z,76.87
2019-03-23T05:06:46.800Z,74.58
2019-03-23T05:09:17.567Z,73.04
2019-03-23T05:11:48.254Z,72.80
2019-03-23T05:14:19.243Z,72.79
2019-03-23T05:16:50.212Z,72.45
2019-03-23T05:19:20.998Z,72.24
2019-03-23T05:21:51.684Z,72.08
2019-03-23T05:24:22.791Z,72.48
2019-03-23T05:26:53.488Z,72.27
2019-03-23T05:29:24.432Z,72.17
2019-03-23T05:31:55.592Z,71.88
2019-03-23T05:34:26.251Z,72.43
2019-03-23T05:36:56.965Z,71.55
2019-03-23T05:39:27.646Z,72.10
2019-03-23T05:41:58.369Z,70.82
2019-03-23T05:44:29.528Z,71.42
2019-03-23T05:47:00.261Z,70.99
2019-03-23T05:49:30.957Z,69.93
2019-03-23T05:52:01.662Z,70.74
2019-03-23T05:54:32.330Z,70.27
2019-03-23T05:57:03.047Z,70.47
2019-03-23T05:59:33.855Z,71.22
2019-03-23T06:02:04.638Z,70.59
2019-03-23T06:04:35.531Z,70.12
2019-03-23T06:07:06.220Z,69.51
2019-03-23T06:09:37.366Z,69.28
2019-03-23T06:12:08.536Z,69.98
2019-03-23T06:14:39.216Z,69.18
2019-03-23T06:17:09.965Z,68.73
2019-03-23T06:19:40.656Z,69.74
2019-03-23T06:22:11.735Z,70.04
2019-03-23T06:24:42.502Z,72.29
2019-03-23T06:27:13.196Z,70.83
2019-03-23T06:29:43.918Z,69.63
2019-03-23T06:32:14.627Z,69.67
2019-03-23T06:34:45.331Z,68.88
2019-03-23T06:37:16.019Z,69.54
2019-03-23T06:39:46.770Z,70.93
2019-03-23T06:42:17.714Z,68.99
2019-03-23T06:44:48.628Z,68.61
2019-03-23T06:47:19.576Z,68.92
2019-03-23T06:49:50.731Z,70.24
2019-03-23T06:52:21.425Z,68.72
2019-03-23T06:54:52.379Z,68.55
2019-03-23T06:57:23.274Z,68.54
2019-03-23T06:59:54.182Z,67.82
2019-03-23T07:02:25.157Z,68.21
2019-03-23T07:04:55.841Z,67.89
2019-03-23T07:07:26.612Z,67.86
2019-03-23T07:09:57.753Z,67.97
2019-03-23T07:12:28.449Z,67.52
2019-03-23T07:14:59.135Z,67.70
2019-03-23T07:17:29.815Z,67.80
2019-03-23T07:20:00.559Z,67.22
2019-03-23T07:22:31.749Z,67.23
2019-03-23T07:25:02.459Z,66.98
2019-03-23T07:27:33.189Z,66.87
2019-03-23T07:30:05.074Z,66.72
2019-03-23T07:32:35.850Z,66.74
2019-03-23T07:35:09.270Z,66.73
2019-03-23T07:37:40.136Z,66.33
2019-03-23T07:40:11.809Z,66.34
2019-03-23T07:42:42.706Z,66.41
2019-03-23T07:45:13.857Z,66.29
2019-03-23T07:47:44.624Z,66.48
2019-03-23T07:50:15.603Z,66.53
2019-03-23T07:52:46.643Z,66.66
2019-03-23T07:55:17.828Z,67.67
2019-03-23T07:57:48.713Z,70.88
2019-03-23T08:00:20.609Z,70.58
2019-03-23T08:02:51.630Z,72.37
2019-03-23T08:05:22.963Z,73.10
2019-03-23T08:07:53.785Z,70.10
2019-03-23T08:10:32.922Z,70.17
2019-03-23T08:13:04.425Z,70.01
2019-03-23T08:15:35.897Z,69.23
2019-03-23T08:18:06.697Z,68.90
2019-03-23T08:20:37.407Z,69.96
2019-03-23T08:23:08.167Z,70.02
2019-03-23T08:25:38.954Z,70.46
2019-03-23T08:28:09.672Z,69.17
2019-03-23T08:30:40.433Z,69.83
2019-03-23T08:33:11.255Z,70.32
2019-03-23T08:35:42.237Z,69.80
2019-03-23T08:38:13.045Z,70.55
2019-03-23T08:40:43.802Z,68.17
2019-03-23T08:43:14.597Z,69.19
2019-03-23T08:45:45.502Z,68.53
2019-03-23T08:48:16.525Z,68.93
2019-03-23T08:50:47.300Z,69.18
2019-03-23T08:53:18.100Z,69.42
2019-03-23T08:55:48.870Z,68.92
2019-03-23T08:58:28.215Z,68.90
2019-03-23T09:01:00.457Z,67.85
2019-03-23T09:03:31.216Z,67.29
2019-03-23T09:06:01.972Z,68.71
2019-03-23T09:08:32.700Z,67.32
2019-03-23T09:11:03.486Z,67.77
2019-03-23T09:13:40.584Z,67.08
2019-03-23T09:16:07.010Z,66.35
2019-03-23T09:18:38.234Z,64.61
2019-03-23T09:21:08.947Z,65.89
2019-03-23T09:23:39.645Z,64.72
2019-03-23T09:26:10.313Z,64.06
2019-03-23T09:28:41.456Z,63.33
2019-03-23T09:31:12.157Z,63.66
2019-03-23T09:33:42.920Z,63.67
2019-03-23T09:36:14.102Z,62.56
2019-03-23T09:38:45.106Z,66.15
2019-03-23T09:41:16.111Z,65.12
2019-03-23T09:43:46.801Z,64.18
2019-03-23T09:46:17.473Z,64.79
2019-03-23T09:48:48.138Z,63.62
2019-03-23T09:51:18.815Z,66.28
2019-03-23T09:53:49.755Z,66.17
2019-03-23T09:56:20.682Z,64.09
2019-03-23T09:58:51.648Z,62.42
2019-03-23T10:01:25.541Z,62.67
2019-03-23T10:03:56.451Z,63.84
2019-03-23T10:06:27.382Z,65.24
2019-03-23T10:08:58.225Z,62.75
2019-03-23T10:11:29.184Z,62.42
2019-03-23T10:13:59.932Z,62.74
2019-03-23T10:16:33.780Z,64.14
2019-03-23T10:19:04.518Z,65.19
2019-03-23T10:21:35.236Z,62.88
2019-03-23T10:24:05.922Z,62.94
2019-03-23T10:26:36.931Z,62.94
2019-03-23T10:29:07.617Z,63.82
2019-03-23T10:31:38.375Z,61.73
2019-03-23T10:34:09.175Z,62.95
2019-03-23T10:36:39.878Z,63.22
2019-03-23T10:39:10.605Z,61.10
2019-03-23T10:41:41.387Z,61.40
2019-03-23T10:44:12.219Z,60.21
2019-03-23T10:46:44.828Z,61.69
2019-03-23T10:49:16.501Z,63.53
2019-03-23T10:51:51.678Z,62.95
2019-03-23T10:54:30.785Z,63.56
2019-03-23T10:57:02.075Z,63.07
2019-03-23T10:59:34.201Z,64.45
2019-03-23T11:02:06.423Z,63.32
2019-03-23T11:05:05.915Z,62.64
2019-03-23T11:07:37.367Z,62.35
2019-03-23T11:10:12.916Z,63.74
2019-03-23T11:12:45.309Z,63.69
2019-03-23T11:15:19.924Z,65.19
2019-03-23T11:17:52.811Z,63.49
2019-03-23T11:20:24.413Z,62.62
2019-03-23T11:22:55.293Z,62.03
2019-03-23T11:25:29.886Z,64.57
2019-03-23T11:28:00.705Z,61.62
2019-03-23T11:30:35.355Z,61.80
2019-03-23T11:33:06.894Z,65.25
2019-03-23T11:35:37.711Z,66.13
2019-03-23T11:38:09.389Z,65.58
2019-03-23T11:40:52.774Z,67.66
2019-03-23T11:43:15.616Z,67.73
2019-03-23T11:45:48.570Z,67.94
2019-03-23T11:48:19.441Z,68.62
2019-03-23T11:50:50.205Z,70.08
2019-03-23T11:53:29.878Z,70.27
2019-03-23T11:56:12.272Z,71.58
2019-03-23T11:58:43.686Z,70.67
2019-03-23T12:01:16.711Z,71.38
2019-03-23T12:03:47.415Z,71.20
2019-03-23T12:06:19.615Z,70.87
2019-03-23T12:08:50.394Z,72.20
2019-03-23T12:11:21.407Z,72.79
2019-03-23T12:13:52.222Z,70.83
2019-03-23T12:16:23.160Z,71.10
2019-03-23T12:18:53.908Z,72.33
2019-03-23T12:21:25.007Z,70.86
2019-03-23T12:23:55.828Z,70.73
2019-03-23T12:26:27.481Z,71.22
2019-03-23T12:28:58.841Z,70.39
2019-03-23T12:31:29.532Z,71.36
2019-03-23T12:34:00.515Z,69.63
2019-03-23T12:36:31.342Z,68.85
2019-03-23T12:39:02.068Z,69.85
2019-03-23T12:41:32.761Z,70.58
2019-03-23T12:44:03.631Z,71.17
2019-03-23T12:46:34.744Z,70.85
2019-03-23T12:49:05.562Z,70.03
2019-03-23T12:51:36.245Z,69.80
2019-03-23T12:54:06.986Z,68.02
2019-03-23T12:56:37.944Z,67.43
2019-03-23T12:59:08.632Z,67.37
2019-03-23T13:01:40.180Z,68.62
2019-03-23T13:04:11.117Z,69.85
2019-03-23T13:06:41.954Z,70.12
2019-03-23T13:09:12.655Z,70.33
2019-03-23T13:11:43.828Z,70.72
2019-03-23T13:14:17.820Z,70.12
2019-03-23T13:16:48.780Z,70.41
2019-03-23T13:19:19.598Z,68.37
2019-03-23T13:21:50.572Z,67.08
2019-03-23T13:24:22.712Z,65.77
2019-03-23T13:26:53.938Z,64.53
2019-03-23T13:29:24.966Z,64.33
2019-03-23T13:31:56.251Z,65.57
2019-03-23T13:34:28.918Z,66.35
2019-03-23T13:36:59.997Z,65.62
2019-03-23T13:39:32.573Z,64.88
2019-03-23T13:42:03.520Z,64.25
2019-03-23T13:44:37.863Z,63.03
2019-03-23T13:47:08.972Z,62.87
2019-03-23T13:49:40.091Z,63.05
2019-03-23T13:52:10.873Z,64.18
2019-03-23T13:54:41.752Z,63.02
2019-03-23T13:57:15.993Z,63.20
2019-03-23T13:59:46.969Z,63.63
2019-03-23T14:02:22.692Z,63.50
2019-03-23T14:04:56.530Z,62.23
2019-03-23T14:07:27.700Z,63.88
2019-03-23T14:10:05.986Z,65.54
2019-03-23T14:12:37.223Z,64.99
2019-03-23T14:15:13.470Z,63.83
2019-03-23T14:17:47.443Z,63.59
2019-03-23T14:20:18.303Z,64.54
2019-03-23T14:22:49.825Z,63.98
2019-03-23T14:25:23.957Z,64.24
2019-03-23T14:27:55.328Z,65.10
2019-03-23T14:30:26.973Z,64.71
2019-03-23T14:32:58.269Z,64.92
2019-03-23T14:35:29.149Z,66.03
2019-03-23T14:38:00.001Z,66.26
2019-03-23T14:40:32.429Z,63.94
2019-03-23T14:43:03.373Z,62.62
2019-03-23T14:45:36.925Z,62.65
2019-03-23T14:48:10.592Z,64.10
2019-03-23T14:50:42.709Z,65.65
2019-03-23T14:53:16.762Z,65.24
2019-03-23T14:55:48.426Z,63.87
2019-03-23T14:58:19.715Z,64.70
2019-03-23T15:04:13.563Z,64.75
2019-03-23T15:07:08.898Z,64.83
2019-03-23T15:09:31.654Z,64.72
2019-03-23T15:12:14.754Z,64.00
2019-03-23T15:14:40.095Z,64.35
2019-03-23T15:17:13.873Z,65.63
2019-03-23T15:19:45.448Z,65.81
2019-03-23T15:22:19.285Z,64.31
2019-03-23T15:25:11.421Z,63.13
2019-03-23T15:28:23.066Z,63.17
2019-03-23T15:30:58.517Z,62.33
2019-03-23T15:33:48.433Z,63.20
2019-03-23T15:36:30.786Z,63.22
2019-03-23T15:39:14.090Z,64.24
2019-03-23T15:42:05.121Z,62.95
2019-03-23T15:44:45.638Z,62.98
2019-03-23T15:47:51.417Z,61.60
2019-03-23T15:52:15.902Z,61.86
2019-03-23T15:53:33.023Z,62.39
2019-03-23T15:56:08.804Z,62.08
2019-03-23T16:02:01.890Z,61.65
2019-03-23T16:04:34.641Z,62.16
2019-03-23T16:07:12.871Z,62.10
2019-03-23T16:09:49.019Z,62.88
2019-03-23T16:12:19.751Z,63.82
2019-03-23T16:14:55.100Z,61.91
2019-03-23T16:17:25.829Z,61.24
2019-03-23T16:20:15.157Z,61.29
2019-03-23T16:22:46.558Z,61.79
2019-03-23T16:25:18.924Z,60.64
2019-03-23T16:27:58.962Z,60.86
2019-03-23T16:30:34.069Z,61.27
2019-03-23T16:33:05.010Z,62.07
2019-03-23T16:35:35.932Z,61.06
2019-03-23T16:38:06.877Z,61.19
2019-03-23T16:40:40.167Z,61.28
2019-03-23T16:43:11.199Z,63.05
2019-03-23T16:45:42.265Z,63.09
2019-03-23T16:48:13.633Z,63.24
2019-03-23T16:50:44.536Z,62.87
2019-03-23T16:53:15.690Z,62.96
2019-03-23T16:55:46.939Z,61.88
2019-03-23T16:58:18.380Z,61.93
2019-03-23T17:00:49.523Z,61.10
2019-03-23T17:03:27.711Z,60.72
2019-03-23T17:05:59.392Z,62.50
2019-03-23T17:08:30.502Z,62.52
2019-03-23T17:11:04.793Z,63.13
2019-03-23T17:13:36.404Z,61.49
2019-03-23T17:16:07.225Z,61.77
2019-03-23T17:18:37.923Z,62.83
2019-03-23T17:21:09.163Z,62.05
2019-03-23T17:23:44.882Z,61.54
2019-03-23T17:26:16.284Z,62.36
2019-03-23T17:28:47.417Z,61.41
2019-03-23T17:31:21.459Z,61.46
2019-03-23T17:36:59.975Z,63.76
2019-03-23T17:39:34.912Z,62.67
2019-03-23T17:42:07.788Z,62.95
2019-03-23T17:44:42.655Z,63.19
2019-03-23T17:47:23.084Z,61.57
2019-03-23T17:49:54.476Z,62.54
2019-03-23T17:52:47.344Z,61.89
2019-03-23T17:55:18.245Z,63.07
2019-03-23T17:57:49.307Z,61.39
2019-03-23T18:00:21.637Z,61.34
2019-03-23T18:02:52.940Z,61.31
2019-03-23T18:05:27.368Z,62.06
2019-03-23T18:07:58.484Z,61.47
2019-03-23T18:10:29.414Z,61.30
2019-03-23T18:13:00.649Z,61.68
2019-03-23T18:15:31.474Z,61.37
2019-03-23T18:18:11.132Z,62.10
2019-03-23T18:20:42.027Z,62.17
2019-03-23T18:23:15.691Z,62.97
2019-03-23T18:25:46.296Z,63.18
2019-03-23T18:28:18.592Z,63.94
2019-03-23T18:30:49.893Z,64.22
2019-03-23T18:33:20.952Z,64.65
2019-03-23T18:35:59.820Z,63.84
2019-03-23T18:38:30.998Z,64.04
2019-03-23T18:41:02.882Z,64.53
2019-03-23T18:43:34.381Z,63.23
2019-03-23T18:46:08.579Z,64.41
2019-03-23T18:48:40.535Z,64.62
2019-03-23T18:51:11.409Z,65.75
2019-03-23T18:53:42.427Z,65.67
2019-03-23T18:56:13.933Z,66.50
2019-03-23T18:58:44.876Z,65.37
2019-03-23T19:01:23.694Z,66.22
2019-03-23T19:03:54.590Z,66.98
2019-03-23T19:06:26.421Z,66.24
2019-03-23T19:08:57.569Z,65.91
2019-03-23T19:11:28.387Z,65.89
2019-03-23T19:13:59.281Z,66.18
2019-03-23T19:16:30.225Z,65.25
2019-03-23T19:19:00.944Z,65.62
2019-03-23T19:21:31.843Z,67.55
2019-03-23T19:24:02.710Z,67.99
2019-03-23T19:26:33.706Z,65.69
2019-03-23T19:29:04.612Z,64.41
2019-03-23T19:31:35.525Z,66.41
2019-03-23T19:34:09.931Z,65.70
2019-03-23T19:36:41.631Z,66.12
2019-03-23T19:39:12.555Z,65.31
2019-03-23T19:41:43.512Z,64.60
2019-03-23T19:44:14.809Z,65.18
2019-03-23T19:46:45.557Z,65.56
2019-03-23T19:49:16.479Z,66.44
2019-03-23T19:51:47.623Z,65.45
2019-03-23T19:54:18.651Z,66.30
2019-03-23T19:56:49.398Z,66.01
2019-03-23T19:59:20.630Z,65.62
2019-03-23T20:01:52.565Z,64.67
2019-03-23T20:04:23.839Z,65.91
2019-03-23T20:06:54.578Z,66.22
2019-03-23T20:09:25.477Z,66.18
2019-03-23T20:11:58.062Z,66.71
2019-03-23T20:14:29.043Z,69.10
2019-03-23T20:16:59.967Z,69.06
2019-03-23T20:19:30.841Z,68.15
2019-03-23T20:22:01.768Z,67.26
2019-03-23T20:24:39.286Z,67.38
2019-03-23T20:27:10.255Z,69.02
2019-03-23T20:29:43.287Z,68.59
2019-03-23T20:32:14.013Z,69.48
2019-03-23T20:34:45.340Z,69.93
2019-03-23T20:37:16.592Z,70.11
2019-03-23T20:39:47.448Z,68.90
2019-03-23T20:42:18.229Z,68.72
2019-03-23T20:44:49.001Z,68.89
2019-03-23T20:47:20.045Z,67.88
2019-03-23T20:49:51.067Z,68.41
2019-03-23T20:52:22.734Z,66.99
2019-03-23T20:54:53.928Z,67.85
2019-03-23T20:57:24.726Z,68.06
2019-03-23T20:59:55.715Z,67.88
2019-03-23T21:02:26.403Z,65.94
2019-03-23T21:04:57.560Z,65.84
2019-03-23T21:07:28.259Z,66.03
2019-03-23T21:09:59.018Z,67.24
2019-03-23T21:12:29.730Z,68.35
2019-03-23T21:15:00.714Z,67.93
2019-03-23T21:17:31.554Z,68.03
2019-03-23T21:20:02.257Z,66.64
2019-03-23T21:22:33.319Z,67.66
2019-03-23T21:25:04.594Z,68.21
2019-03-23T21:27:35.302Z,65.78
2019-03-23T21:30:08.053Z,67.73
2019-03-23T21:32:38.908Z,67.73
2019-03-23T21:35:09.911Z,69.18
2019-03-23T21:37:41.129Z,69.13
2019-03-23T21:40:12.561Z,68.83
2019-03-23T21:42:43.290Z,68.74
2019-03-23T21:45:14.499Z,69.07
2019-03-23T21:47:45.224Z,68.98
2019-03-23T21:50:16.127Z,67.94
2019-03-23T21:52:47.057Z,69.81
2019-03-23T21:55:17.796Z,69.21
2019-03-23T21:57:48.771Z,67.70
2019-03-23T22:00:34.876Z,68.21
2019-03-23T22:03:05.972Z,67.75
2019-03-23T22:05:37.010Z,67.40
2019-03-23T22:08:07.743Z,68.44
2019-03-23T22:10:38.562Z,67.87
2019-03-23T22:13:09.268Z,66.53
2019-03-23T22:15:40.049Z,66.52
2019-03-23T22:18:10.801Z,65.56
2019-03-23T22:20:41.539Z,65.85
2019-03-23T22:23:12.656Z,66.06
2019-03-23T22:25:43.306Z,67.18
2019-03-23T22:28:14.052Z,65.93
2019-03-23T22:30:44.768Z,67.35
2019-03-23T22:33:15.795Z,66.97
2019-03-23T22:35:46.531Z,65.42
2019-03-23T22:38:17.264Z,65.78
2019-03-23T22:40:48.361Z,66.88
2019-03-23T22:43:19.231Z,66.74
2019-03-23T22:45:49.959Z,67.27
2019-03-23T22:48:20.804Z,67.21
2019-03-23T22:50:51.525Z,67.26
2019-03-23T22:53:22.227Z,66.22
2019-03-23T22:55:53.200Z,66.20
2019-03-23T22:58:24.161Z,66.68
2019-03-23T23:00:56.220Z,66.30
2019-03-23T23:03:27.007Z,66.08
2019-03-23T23:05:58.040Z,67.61
2019-03-23T23:08:31.905Z,69.08
2019-03-23T23:11:02.570Z,69.36
2019-03-23T23:13:33.648Z,70.03
2019-03-23T23:16:04.761Z,68.29
2019-03-23T23:18:35.478Z,67.97
2019-03-23T23:21:06.488Z,67.73
2019-03-23T23:23:37.114Z,68.07
2019-03-23T23:26:07.828Z,69.08
2019-03-23T23:28:38.937Z,70.60
2019-03-23T23:31:09.816Z,68.63
2019-03-23T23:33:40.939Z,68.87
2019-03-23T23:36:11.952Z,71.97
2019-03-23T23:38:42.913Z,70.88
2019-03-23T23:41:14.039Z,69.62
2019-03-23T23:43:45.142Z,69.84
2019-03-23T23:46:15.948Z,68.57
2019-03-23T23:48:51.137Z,68.80
2019-03-23T23:51:19.507Z,68.15
2019-03-23T23:53:50.671Z,68.88
2019-03-23T23:56:22.324Z,69.04
2019-03-23T23:58:53.063Z,68.78
